Time;durP1;ratioP1;P1;durP2;ratioP2;P2;SDS_P1;SDS_P2;PMS_P1;PMS_P2;Temp;Humidity;BMP_temperature;BMP_pressure;BME280_temperature;BME280_humidity;BME280_pressure;Samples;Min_cycle;Max_cycle;Signal;HPM_P1;HPM_P2
2022/06/26 00:00:05;;;;;;;3.13;1.05;;;;;;;25.65;36.88;100914.63;6195336;23;20071;-42
2022/06/26 00:02:34;;;;;;;1.58;0.60;;;;;;;25.52;36.98;100899.66;6245654;23;20019;-43
2022/06/26 00:05:03;;;;;;;5.50;1.05;;;;;;;25.56;37.09;100912.81;6245458;23;20008;-41
2022/06/26 00:07:32;;;;;;;1.70;0.68;;;;;;;25.58;37.05;100915.44;6219120;23;20004;-42
2022/06/26 00:10:01;;;;;;;4.60;1.10;;;;;;;25.53;37.09;100907.53;6220058;23;20008;-42
2022/06/26 00:12:29;;;;;;;1.88;0.52;;;;;;;25.50;37.10;100893.53;6248294;23;20008;-46
2022/06/26 00:14:58;;;;;;;1.88;0.65;;;;;;;25.60;36.83;100909.34;6247438;23;20011;-42
2022/06/26 00:17:27;;;;;;;2.15;0.80;;;;;;;25.57;37.00;100901.44;6220680;23;20031;-42
2022/06/26 00:19:55;;;;;;;3.38;1.00;;;;;;;25.60;36.89;100905.81;6221189;23;20014;-42
2022/06/26 00:22:23;;;;;;;2.97;0.95;;;;;;;25.54;37.27;100911.94;6247117;23;20040;-43
2022/06/26 00:24:52;;;;;;;2.80;0.90;;;;;;;25.51;37.22;100900.53;6221046;23;20054;-42
2022/06/26 00:27:20;;;;;;;2.85;0.88;;;;;;;25.58;36.84;100908.44;6196131;23;20004;-46
2022/06/26 00:29:49;;;;;;;3.53;0.93;;;;;;;25.55;36.98;100908.44;6247572;23;20039;-42
2022/06/26 00:32:17;;;;;;;1.70;0.70;;;;;;;25.38;37.04;100889.94;6221051;23;20082;-45
2022/06/26 00:34:46;;;;;;;3.67;0.85;;;;;;;25.53;37.44;100904.91;6220859;23;20004;-43
2022/06/26 00:37:15;;;;;;;3.90;0.90;;;;;;;25.55;37.03;100913.69;6248490;23;20085;-42
2022/06/26 00:39:43;;;;;;;2.83;0.93;;;;;;;25.48;37.11;100901.41;6246034;23;20069;-43
2022/06/26 00:42:12;;;;;;;2.60;1.02;;;;;;;25.48;37.26;100901.41;6247017;23;20008;-43
2022/06/26 00:44:40;;;;;;;3.05;0.80;;;;;;;25.51;37.20;100911.91;6221734;23;20015;-42
2022/06/26 00:47:09;;;;;;;2.97;0.70;;;;;;;25.49;37.34;100905.75;6245954;23;20008;-42
2022/06/26 00:49:38;;;;;;;3.10;0.95;;;;;;;25.25;37.65;100894.22;6247071;23;20004;-43
2022/06/26 00:52:06;;;;;;;2.03;0.77;;;;;;;25.45;37.44;100919.75;6247015;23;20011;-42
2022/06/26 00:54:37;;;;;;;3.97;1.15;;;;;;;25.46;37.14;100906.63;6207118;23;20515;-51
2022/06/26 00:57:06;;;;;;;2.15;0.65;;;;;;;25.46;37.12;100897.88;6187112;23;20009;-43
2022/06/26 00:59:35;;;;;;;2.22;0.80;;;;;;;25.51;37.28;100919.78;6185103;23;20340;-42
2022/06/26 01:02:03;;;;;;;2.92;0.70;;;;;;;25.51;37.37;100919.78;6186987;23;20009;-52
2022/06/26 01:04:32;;;;;;;3.45;0.80;;;;;;;25.54;37.45;100919.81;6186842;23;20116;-45
2022/06/26 01:07:01;;;;;;;2.50;1.05;;;;;;;25.53;37.26;100918.03;6186735;23;20009;-42
2022/06/26 01:09:30;;;;;;;2.90;0.85;;;;;;;25.55;37.20;100920.69;6185437;23;20078;-53
2022/06/26 01:11:58;;;;;;;3.38;1.08;;;;;;;25.51;37.30;100918.91;6187038;23;20001;-54
2022/06/26 01:14:27;;;;;;;2.25;0.70;;;;;;;25.51;37.36;100922.41;6184530;23;20001;-48
2022/06/26 01:16:56;;;;;;;2.95;0.77;;;;;;;25.52;37.24;100910.16;6186732;23;20067;-46
2022/06/26 01:19:26;;;;;;;2.85;0.88;;;;;;;25.48;37.31;100923.28;6184961;23;19997;-44
2022/06/26 01:21:54;;;;;;;2.63;0.88;;;;;;;25.48;37.67;100922.41;6184442;23;20020;-47
2022/06/26 01:24:23;;;;;;;2.75;0.80;;;;;;;25.45;37.44;100917.13;6185402;23;20008;-42
2022/06/26 01:26:52;;;;;;;3.10;0.88;;;;;;;25.43;37.17;100903.97;6186472;23;20036;-44
2022/06/26 01:29:21;;;;;;;1.67;0.55;;;;;;;25.48;37.51;100918.03;6186473;23;20372;-44
2022/06/26 01:31:49;;;;;;;3.83;0.80;;;;;;;25.44;37.64;100915.38;6186483;23;20013;-47
2022/06/26 01:34:18;;;;;;;1.40;0.65;;;;;;;25.47;37.54;100921.53;6186606;23;20064;-50
2022/06/26 01:36:47;;;;;;;2.55;0.90;;;;;;;25.52;37.47;100924.16;6186470;23;20428;-45
2022/06/26 01:39:18;;;;;;;3.53;0.77;;;;;;;25.51;37.40;100924.16;6186700;23;20009;-46
2022/06/26 01:41:49;;;;;;;3.25;1.00;;;;;;;25.45;37.47;100922.38;6186709;23;20435;-47
2022/06/26 01:44:18;;;;;;;2.00;0.50;;;;;;;25.49;37.34;100921.50;6186676;23;20005;-54
2022/06/26 01:46:46;;;;;;;3.15;0.75;;;;;;;25.47;37.48;100921.53;6186862;23;19997;-46
2022/06/26 01:49:15;;;;;;;1.95;0.63;;;;;;;25.49;37.29;100921.50;6186500;23;20001;-43
2022/06/26 01:51:44;;;;;;;3.28;0.93;;;;;;;25.48;37.50;100927.66;6186916;23;20005;-44
2022/06/26 01:54:12;;;;;;;2.92;0.80;;;;;;;25.44;37.48;100915.38;6191946;23;20017;-45
2022/06/26 01:56:43;;;;;;;2.95;0.90;;;;;;;25.41;37.50;100925.81;6246546;23;20134;-45
2022/06/26 01:59:14;;;;;;;2.20;0.73;;;;;;;25.46;37.28;100913.66;6246553;23;20008;-51
2022/06/26 02:01:42;;;;;;;2.47;0.80;;;;;;;25.41;37.66;100921.44;6246660;23;20012;-43
2022/06/26 02:04:16;;;;;;;2.15;0.60;;;;;;;25.47;37.56;100915.41;6246081;23;20011;-42
2022/06/26 02:06:45;;;;;;;2.28;0.70;;;;;;;25.48;37.37;100919.78;6244676;23;20004;-51
2022/06/26 02:13:36;;;;;;;1.10;0.65;;;;;;;25.46;37.51;100916.28;6246735;23;19999;-45
2022/06/26 02:14:48;;;;;;;2.22;0.65;;;;;;;25.46;37.45;100917.13;6230819;23;20004;-47
2022/06/26 02:17:17;;;;;;;3.55;0.70;;;;;;;25.45;37.34;100925.88;6246226;23;20510;-46
2022/06/26 02:19:45;;;;;;;1.70;0.57;;;;;;;25.48;37.24;100923.28;6246189;23;20011;-44
2022/06/26 02:22:14;;;;;;;4.63;1.00;;;;;;;25.52;37.07;100924.16;6246476;23;20423;-47
2022/06/26 02:24:44;;;;;;;5.20;0.88;;;;;;;25.51;37.60;100921.53;6246624;23;20000;-44
2022/06/26 02:27:13;;;;;;;1.77;0.85;;;;;;;25.54;37.43;100924.19;6246983;23;20050;-42
2022/06/26 02:29:42;;;;;;;3.95;1.08;;;;;;;25.45;37.48;100911.88;6246548;23;20277;-47
2022/06/26 02:32:10;;;;;;;2.97;0.85;;;;;;;25.50;37.21;100909.28;6246870;23;20032;-49
2022/06/26 02:34:39;;;;;;;2.92;0.93;;;;;;;25.46;37.38;100911.88;6246288;23;20313;-43
2022/06/26 02:37:07;;;;;;;1.33;0.60;;;;;;;25.49;37.27;100908.38;6246972;23;20075;-46
2022/06/26 02:39:35;;;;;;;2.35;0.90;;;;;;;25.42;37.49;100914.50;6246039;23;20004;-45
2022/06/26 02:42:04;;;;;;;1.45;0.60;;;;;;;25.47;37.35;100915.41;6245570;23;20012;-49
2022/06/26 02:44:34;;;;;;;2.20;0.70;;;;;;;25.45;37.33;100909.25;6246471;23;20460;-46
2022/06/26 02:47:03;;;;;;;2.92;0.43;;;;;;;25.42;37.59;100917.13;6245663;23;20004;-42
2022/06/26 02:49:32;;;;;;;2.58;0.70;;;;;;;25.43;37.55;100916.25;6219239;23;20343;-43
2022/06/26 02:52:00;;;;;;;0.82;0.30;;;;;;;25.47;37.37;100899.66;6246353;23;20423;-43
2022/06/26 02:54:29;;;;;;;2.92;0.60;;;;;;;25.45;37.41;100907.50;6245954;23;20019;-46
2022/06/26 02:56:58;;;;;;;2.03;0.50;;;;;;;25.39;37.65;100906.56;6245700;23;20432;-43
2022/06/26 02:59:26;;;;;;;1.95;0.43;;;;;;;25.45;37.23;100917.13;6219016;23;20320;-46
2022/06/26 03:01:57;;;;;;;0.85;0.40;;;;;;;25.45;37.65;100917.13;6245739;23;20011;-44
2022/06/26 03:04:26;;;;;;;2.75;1.15;;;;;;;25.54;37.43;100919.81;6246594;23;20077;-43
2022/06/26 03:06:55;;;;;;;1.48;0.65;;;;;;;25.54;37.18;100911.06;6246242;23;20079;-42
2022/06/26 03:09:23;;;;;;;1.88;0.80;;;;;;;25.48;37.36;100922.41;6245883;23;20335;-44
2022/06/26 03:11:52;;;;;;;1.33;0.50;;;;;;;25.53;37.17;100928.56;6245678;23;20004;-42
2022/06/26 03:14:21;;;;;;;2.65;0.80;;;;;;;25.47;37.43;100915.41;6246008;23;20000;-42
2022/06/26 03:16:49;;;;;;;3.55;0.70;;;;;;;25.42;37.60;100912.72;6245761;23;20347;-53
2022/06/26 03:19:18;;;;;;;1.45;0.63;;;;;;;25.42;37.55;100919.75;6245620;23;20004;-44
2022/06/26 03:21:47;;;;;;;1.52;0.60;;;;;;;25.52;37.46;100924.16;6245814;23;20038;-52
2022/06/26 03:24:15;;;;;;;3.67;0.85;;;;;;;25.48;37.50;100912.78;6245548;23;20079;-53
2022/06/26 03:26:44;;;;;;;2.38;0.50;;;;;;;25.58;37.11;100918.97;6245624;23;20008;-43
2022/06/26 03:29:13;;;;;;;1.42;0.50;;;;;;;25.52;37.20;100926.78;6245895;23;20324;-46
2022/06/26 03:31:42;;;;;;;2.78;0.70;;;;;;;25.52;37.44;100923.31;6245895;23;20332;-50
2022/06/26 03:34:11;;;;;;;2.60;0.60;;;;;;;25.37;37.31;100903.94;6245828;23;20023;-44
2022/06/26 03:36:39;;;;;;;1.58;0.50;;;;;;;25.56;37.23;100935.59;6245703;23;20014;-44
2022/06/26 03:39:08;;;;;;;2.65;0.60;;;;;;;25.49;37.32;100926.78;6245783;23;20366;-43
2022/06/26 03:41:37;;;;;;;2.53;0.90;;;;;;;25.40;37.59;100921.44;6245639;23;20014;-45
2022/06/26 03:44:06;;;;;;;2.83;0.75;;;;;;;25.48;37.21;100931.16;6245467;23;20070;-45
2022/06/26 03:46:35;;;;;;;2.38;0.95;;;;;;;25.44;37.34;100929.38;6218875;23;20004;-44
2022/06/26 03:49:03;;;;;;;2.08;0.70;;;;;;;25.44;37.50;100928.50;6245718;23;20031;-43
2022/06/26 03:51:32;;;;;;;2.03;1.00;;;;;;;25.46;37.25;100926.78;6245350;23;20008;-43
2022/06/26 03:54:00;;;;;;;5.05;0.85;;;;;;;25.46;37.56;100926.78;6243387;23;20011;-44
2022/06/26 03:56:29;;;;;;;2.88;0.70;;;;;;;25.49;37.14;100937.28;6245957;23;20474;-44
2022/06/26 03:58:57;;;;;;;3.10;0.95;;;;;;;25.52;37.40;100929.41;6245656;23;20001;-54
2022/06/26 04:01:26;;;;;;;1.40;0.40;;;;;;;25.53;37.10;100940.81;6245715;23;20000;-45
2022/06/26 04:03:55;;;;;;;1.80;0.57;;;;;;;25.48;37.74;100930.28;6245664;23;20423;-51
2022/06/26 04:06:23;;;;;;;2.20;0.63;;;;;;;25.47;37.78;100937.28;6245460;23;20004;-44
2022/06/26 04:08:52;;;;;;;3.58;0.90;;;;;;;25.39;37.44;100928.44;6245333;23;20004;-44
2022/06/26 04:11:21;;;;;;;1.65;0.60;;;;;;;25.41;37.69;100938.97;6245436;23;20004;-44
2022/06/26 04:13:49;;;;;;;2.20;0.50;;;;;;;25.41;37.60;100937.19;6245678;23;20031;-44
2022/06/26 04:16:20;;;;;;;2.80;0.70;;;;;;;25.47;37.71;100936.41;6244733;23;20103;-49
2022/06/26 04:18:48;;;;;;;1.23;0.40;;;;;;;25.48;37.36;100940.81;6245948;23;20035;-45
2022/06/26 04:21:17;;;;;;;2.35;0.60;;;;;;;25.40;37.51;100924.94;6245255;23;20007;-51
2022/06/26 04:23:45;;;;;;;2.75;0.70;;;;;;;25.48;37.30;100943.44;6245851;23;20004;-49
2022/06/26 04:26:13;;;;;;;1.83;0.65;;;;;;;25.45;37.28;100951.28;6246905;23;19996;-44
2022/06/26 04:28:41;;;;;;;1.70;0.50;;;;;;;25.45;37.43;100954.78;6245574;23;20000;-47
2022/06/26 04:31:10;;;;;;;2.60;0.65;;;;;;;25.47;37.61;100962.69;6245772;23;20458;-48
2022/06/26 04:33:38;;;;;;;3.25;0.70;;;;;;;25.53;37.26;100962.69;6244909;23;20004;-48
2022/06/26 04:36:06;;;;;;;2.25;0.73;;;;;;;25.49;37.60;100960.91;6245305;23;20063;-48
2022/06/26 04:38:34;;;;;;;2.97;0.73;;;;;;;25.48;37.56;100959.19;6245974;23;20055;-48
2022/06/26 04:41:31;;;;;;;2.25;0.60;;;;;;;25.48;37.57;100965.31;6245084;23;20061;-48
2022/06/26 04:43:50;;;;;;;2.28;0.70;;;;;;;25.51;37.44;100966.19;6245249;23;20011;-47
2022/06/26 04:46:18;;;;;;;2.83;0.82;;;;;;;25.46;37.35;100967.03;6246136;23;20000;-50
2022/06/26 04:48:47;;;;;;;2.15;0.47;;;;;;;25.45;37.73;100961.78;6245677;23;20037;-51
2022/06/26 04:51:15;;;;;;;1.48;0.50;;;;;;;25.48;37.61;100970.56;6245666;23;20079;-43
2022/06/26 04:53:43;;;;;;;1.83;0.50;;;;;;;25.43;37.36;100956.50;6218858;23;20008;-46
2022/06/26 04:56:12;;;;;;;2.53;0.77;;;;;;;25.53;37.26;100969.72;6245614;23;20070;-47
2022/06/26 04:58:41;;;;;;;1.73;0.50;;;;;;;25.52;37.66;100974.06;6247186;23;20008;-43
2022/06/26 05:01:10;;;;;;;1.75;0.57;;;;;;;25.57;37.38;100972.38;6247102;23;20424;-50
2022/06/26 05:03:38;;;;;;;2.63;0.75;;;;;;;25.56;37.42;100977.63;6247435;23;20000;-51
2022/06/26 05:06:07;;;;;;;2.30;0.68;;;;;;;25.55;37.60;100978.47;6246297;23;20004;-52
2022/06/26 05:08:35;;;;;;;1.00;0.30;;;;;;;25.52;37.30;100975.84;6246890;23;20010;-45
2022/06/26 05:11:04;;;;;;;1.23;0.52;;;;;;;25.58;37.37;100979.38;6246710;23;20004;-51
2022/06/26 05:13:33;;;;;;;0.88;0.47;;;;;;;25.58;37.22;100976.75;6246837;23;20006;-45
2022/06/26 05:16:02;;;;;;;2.55;0.68;;;;;;;25.59;37.59;100978.50;6247122;23;20067;-45
2022/06/26 05:18:30;;;;;;;2.53;0.50;;;;;;;25.63;37.40;100984.66;6247303;23;20035;-43
2022/06/26 05:20:59;;;;;;;1.25;0.45;;;;;;;25.62;37.17;100980.25;6246675;23;20008;-47
2022/06/26 05:23:27;;;;;;;0.70;0.35;;;;;;;25.68;37.10;100987.31;6245690;23;20376;-56
2022/06/26 05:25:56;;;;;;;1.20;0.52;;;;;;;25.67;37.21;100993.41;6246786;23;20000;-44
2022/06/26 05:28:25;;;;;;;2.55;0.80;;;;;;;25.63;37.17;100985.56;6246931;23;20071;-43
2022/06/26 05:30:53;;;;;;;1.23;0.47;;;;;;;25.62;37.40;100991.66;6246184;23;20027;-46
2022/06/26 05:33:22;;;;;;;2.80;0.70;;;;;;;25.61;37.59;100994.28;6246499;23;20000;-45
2022/06/26 05:35:50;;;;;;;1.02;0.57;;;;;;;25.54;37.36;100977.59;6245253;23;20443;-43
2022/06/26 05:38:17;;;;;;;2.45;0.70;;;;;;;25.65;37.18;100988.16;6220529;23;20011;-48
2022/06/26 05:40:46;;;;;;;2.70;0.88;;;;;;;25.70;37.37;100996.06;6220044;23;20004;-45
2022/06/26 05:43:14;;;;;;;1.90;0.50;;;;;;;25.66;37.35;100991.66;6246834;23;20049;-46
2022/06/26 05:45:43;;;;;;;1.45;0.65;;;;;;;25.73;37.33;100994.34;6246679;23;20451;-51
2022/06/26 05:48:11;;;;;;;2.65;0.70;;;;;;;25.74;37.47;100996.09;6246494;23;20079;-44
2022/06/26 05:50:40;;;;;;;2.50;0.60;;;;;;;25.76;37.52;101004.88;6246684;23;20036;-46
2022/06/26 05:53:08;;;;;;;1.33;0.43;;;;;;;25.71;37.55;100998.72;6246466;23;20505;-44
2022/06/26 05:55:38;;;;;;;2.00;0.80;;;;;;;25.73;37.69;101009.25;6245606;23;20016;-43
2022/06/26 05:58:07;;;;;;;3.17;0.55;;;;;;;25.75;37.50;101010.13;6245244;23;20015;-47
2022/06/26 06:00:36;;;;;;;2.38;0.52;;;;;;;25.79;37.52;101002.28;6246928;23;20000;-44
2022/06/26 06:03:05;;;;;;;2.65;0.65;;;;;;;25.83;37.51;101008.41;6246277;23;20015;-44
2022/06/26 06:05:33;;;;;;;1.58;0.55;;;;;;;25.88;37.48;101013.72;6246437;23;20004;-44
2022/06/26 06:08:03;;;;;;;4.97;0.73;;;;;;;25.89;37.31;101013.72;6246260;23;20000;-43
2022/06/26 06:10:32;;;;;;;2.03;0.80;;;;;;;25.88;37.31;101016.34;6246232;23;20003;-48
2022/06/26 06:13:01;;;;;;;1.33;0.50;;;;;;;25.84;37.53;101017.19;6245759;23;20101;-44
2022/06/26 06:15:29;;;;;;;1.75;0.55;;;;;;;25.85;37.32;101017.19;6220077;23;20000;-43
2022/06/26 06:17:58;;;;;;;1.65;0.55;;;;;;;25.84;37.45;101017.19;6246142;23;20011;-47
2022/06/26 06:20:27;;;;;;;5.07;0.60;;;;;;;25.89;37.50;101031.25;6246152;23;20501;-43
2022/06/26 06:23:01;;;;;;;1.35;0.50;;;;;;;25.86;37.26;101029.47;6246467;23;20016;-45
2022/06/26 06:25:30;;;;;;;1.38;0.40;;;;;;;25.84;37.75;101017.19;6246615;23;20382;-48
2022/06/26 06:27:59;;;;;;;2.80;0.85;;;;;;;25.88;37.24;101017.22;6244876;23;20012;-43
2022/06/26 06:30:28;;;;;;;1.10;0.38;;;;;;;25.92;37.42;101012.84;6246126;23;20146;-43
2022/06/26 06:32:57;;;;;;;2.20;0.57;;;;;;;25.96;37.20;101014.63;6246209;23;20008;-43
2022/06/26 06:35:25;;;;;;;1.38;0.70;;;;;;;25.97;37.51;101021.63;6246090;23;20331;-44
2022/06/26 06:37:54;;;;;;;1.80;0.68;;;;;;;25.98;37.56;101025.16;6245549;23;20011;-50
2022/06/26 06:40:23;;;;;;;2.17;0.50;;;;;;;25.94;37.66;101021.63;6246161;23;20008;-44
2022/06/26 06:42:51;;;;;;;1.08;0.57;;;;;;;25.96;37.84;101017.25;6247165;23;20405;-46
2022/06/26 06:45:20;;;;;;;1.65;0.45;;;;;;;25.98;37.97;101022.53;6245967;23;20078;-50
2022/06/26 06:47:48;;;;;;;2.80;0.80;;;;;;;26.04;37.71;101025.19;6246140;23;20004;-52
2022/06/26 06:50:17;;;;;;;3.67;0.80;;;;;;;26.07;37.81;101026.06;6246029;23;20331;-45
2022/06/26 06:52:45;;;;;;;2.88;0.80;;;;;;;26.16;37.94;101030.53;6245923;23;20008;-53
2022/06/26 06:55:14;;;;;;;2.20;0.50;;;;;;;26.22;37.48;101027.06;6245563;23;20044;-50
2022/06/26 06:57:42;;;;;;;2.03;0.45;;;;;;;26.23;37.47;101026.16;6246329;23;20420;-46
2022/06/26 07:00:11;;;;;;;2.60;0.75;;;;;;;26.31;37.55;101037.63;6219458;23;20007;-44
2022/06/26 07:02:40;;;;;;;2.03;0.55;;;;;;;26.30;37.50;101035.84;6245861;23;20336;-47
2022/06/26 07:05:09;;;;;;;2.95;0.85;;;;;;;26.35;37.36;101033.25;6219033;23;20078;-49
2022/06/26 07:07:38;;;;;;;3.95;0.80;;;;;;;26.33;37.42;101030.63;6245876;23;20011;-49
2022/06/26 07:10:09;;;;;;;4.63;0.98;;;;;;;26.36;37.33;101042.88;6245620;23;20008;-49
2022/06/26 07:12:38;;;;;;;4.25;0.77;;;;;;;26.34;37.54;101042.91;6246526;23;20004;-45
2022/06/26 07:15:06;;;;;;;4.93;1.00;;;;;;;26.40;37.23;101052.56;6246032;23;20057;-44
2022/06/26 07:17:35;;;;;;;4.45;0.93;;;;;;;26.40;37.09;101047.28;6246170;23;20007;-44
2022/06/26 07:20:04;;;;;;;4.13;1.20;;;;;;;26.41;37.14;101051.69;6245580;23;20004;-45
2022/06/26 07:22:33;;;;;;;4.65;1.00;;;;;;;26.43;37.03;101056.94;6244455;23;20012;-44
2022/06/26 07:25:02;;;;;;;5.75;1.58;;;;;;;26.44;37.03;101045.53;6245813;23;20004;-47
2022/06/26 07:27:30;;;;;;;5.28;0.95;;;;;;;26.47;36.60;101053.47;6245001;23;20015;-51
2022/06/26 07:29:59;;;;;;;5.20;0.80;;;;;;;26.51;36.88;101052.59;6245445;23;20327;-45
2022/06/26 07:32:28;;;;;;;3.90;0.90;;;;;;;26.51;36.89;101053.47;6245764;23;20006;-43
2022/06/26 07:34:56;;;;;;;4.50;1.30;;;;;;;26.53;36.75;101059.63;6245493;23;20000;-45
2022/06/26 07:37:24;;;;;;;3.30;0.98;;;;;;;26.53;36.89;101059.63;6245723;23;20000;-46
2022/06/26 07:39:53;;;;;;;5.65;1.25;;;;;;;26.57;36.83;101068.38;6244700;23;20004;-44
2022/06/26 07:42:22;;;;;;;10.93;1.30;;;;;;;26.59;37.03;101071.03;6246022;23;20019;-43
2022/06/26 07:44:50;;;;;;;4.53;1.00;;;;;;;26.64;36.46;101069.31;6219245;23;20016;-49
2022/06/26 07:47:19;;;;;;;7.28;1.50;;;;;;;26.67;36.58;101071.94;6245647;23;20439;-52
2022/06/26 07:49:48;;;;;;;4.03;1.33;;;;;;;26.71;36.41;101064.94;6245902;23;20007;-48
2022/06/26 07:52:15;;;;;;;4.47;1.17;;;;;;;26.72;36.51;101067.56;6218803;23;20004;-48
2022/06/26 07:54:44;;;;;;;4.20;1.13;;;;;;;26.74;36.32;101067.56;6245833;23;20019;-45
2022/06/26 07:57:13;;;;;;;4.97;1.17;;;;;;;26.72;36.20;101071.97;6245495;23;20008;-43
2022/06/26 07:59:40;;;;;;;4.40;1.00;;;;;;;26.65;36.37;101055.25;6245532;23;20000;-47
2022/06/26 08:02:09;;;;;;;3.88;1.00;;;;;;;26.79;36.39;101072.03;6245706;23;20040;-44
2022/06/26 08:04:38;;;;;;;8.20;1.38;;;;;;;26.73;35.52;101077.22;6245573;23;20008;-55
2022/06/26 08:07:06;;;;;;;11.77;2.05;;;;;;;26.63;35.92;101072.81;6245717;23;20012;-51
2022/06/26 08:09:35;;;;;;;9.25;1.80;;;;;;;26.59;36.14;101079.81;6245483;23;20075;-51
2022/06/26 08:12:04;;;;;;;9.52;2.05;;;;;;;26.68;35.47;101081.59;6245806;23;20000;-46
2022/06/26 08:14:33;;;;;;;8.23;1.92;;;;;;;26.56;34.91;101084.19;6218323;23;20000;-46
2022/06/26 08:17:01;;;;;;;9.55;2.10;;;;;;;26.09;35.08;101074.28;6245664;23;20070;-47
2022/06/26 08:19:30;;;;;;;8.50;2.13;;;;;;;25.87;35.96;101083.78;6218858;23;20443;-50
2022/06/26 08:22:02;;;;;;;8.52;1.95;;;;;;;25.70;36.33;101085.41;6245992;23;20005;-45
2022/06/26 08:24:32;;;;;;;9.07;1.55;;;;;;;25.48;36.15;101082.63;6245743;23;20000;-46
2022/06/26 08:27:01;;;;;;;7.53;1.55;;;;;;;25.43;36.11;101081.69;6245768;23;20121;-44
2022/06/26 08:29:30;;;;;;;9.30;1.63;;;;;;;25.43;36.61;101084.31;6245544;23;20336;-44
2022/06/26 08:31:58;;;;;;;8.70;1.60;;;;;;;25.39;36.50;101074.63;6245537;23;20331;-42
2022/06/26 08:34:27;;;;;;;5.85;1.75;;;;;;;25.43;36.44;101086.94;6247062;23;20011;-44
2022/06/26 08:36:56;;;;;;;4.60;1.42;;;;;;;25.35;36.31;101084.22;6247904;23;20004;-52
2022/06/26 08:39:25;;;;;;;8.68;1.70;;;;;;;25.13;36.75;101070.88;6247392;23;20085;-42
2022/06/26 08:41:56;;;;;;;8.25;1.70;;;;;;;25.15;36.84;101076.16;6247198;23;20008;-42
2022/06/26 08:44:26;;;;;;;8.02;2.03;;;;;;;25.24;37.62;101083.22;6220778;23;20011;-42
2022/06/26 08:46:55;;;;;;;4.15;1.23;;;;;;;24.98;37.74;101082.13;6247767;23;20365;-42
2022/06/26 08:49:24;;;;;;;11.48;2.00;;;;;;;24.88;38.14;101088.13;6247524;23;20479;-46
2022/06/26 08:51:53;;;;;;;8.70;1.67;;;;;;;24.80;37.87;101088.03;6247852;23;20027;-43
2022/06/26 08:54:22;;;;;;;6.43;1.65;;;;;;;24.82;38.03;101085.44;6247164;23;20335;-41
2022/06/26 08:56:51;;;;;;;7.07;1.73;;;;;;;24.89;37.42;101089.88;6247054;23;20012;-41
2022/06/26 08:59:20;;;;;;;5.57;1.10;;;;;;;24.94;37.03;101080.31;6247461;23;20371;-53
2022/06/26 09:01:49;;;;;;;6.25;1.55;;;;;;;25.06;37.46;101091.81;6246245;23;20010;-41
2022/06/26 09:04:18;;;;;;;6.60;1.52;;;;;;;24.83;36.84;101085.44;6247096;23;20004;-42
2022/06/26 09:06:47;;;;;;;5.03;1.13;;;;;;;24.78;36.84;101083.66;6247449;23;20036;-41
2022/06/26 09:09:18;;;;;;;6.40;1.92;;;;;;;24.73;37.45;101086.22;6246951;23;20030;-42
2022/06/26 09:11:47;;;;;;;4.70;1.33;;;;;;;24.73;37.24;101081.84;6247771;23;20004;-43
2022/06/26 09:14:16;;;;;;;7.88;1.63;;;;;;;24.91;37.25;101082.91;6247223;23;20004;-42
2022/06/26 09:16:47;;;;;;;5.75;1.58;;;;;;;24.90;37.15;101088.16;6220809;23;20435;-43
2022/06/26 09:19:19;;;;;;;8.93;2.35;;;;;;;24.72;37.52;101093.19;6220208;23;20436;-45
2022/06/26 09:21:49;;;;;;;6.07;1.50;;;;;;;24.57;37.77;101085.97;6247182;23;20413;-42
2022/06/26 09:24:19;;;;;;;4.50;1.35;;;;;;;24.54;37.79;101093.81;6247383;23;20075;-50
2022/06/26 09:27:03;;;;;;;11.73;1.92;;;;;;;24.35;38.15;101084.81;6247105;23;20501;-43
2022/06/26 09:29:32;;;;;;;6.75;1.80;;;;;;;24.40;38.02;101090.16;6246842;23;20004;-42
2022/06/26 09:32:13;;;;;;;7.82;1.98;;;;;;;24.37;38.58;101101.47;6221354;23;20327;-41
2022/06/26 09:34:46;;;;;;;12.10;1.92;;;;;;;24.37;37.90;101087.47;6246732;23;20011;-42
2022/06/26 09:37:16;;;;;;;7.30;1.92;;;;;;;24.33;38.43;101090.91;6247270;23;20027;-43
2022/06/26 09:39:44;;;;;;;5.60;1.35;;;;;;;24.60;38.42;101098.25;6246231;23;20023;-43
2022/06/26 09:42:17;;;;;;;4.10;1.45;;;;;;;24.61;38.36;101105.28;6244767;23;20012;-42
2022/06/26 09:44:47;;;;;;;5.47;1.85;;;;;;;24.68;38.37;101112.34;6246813;23;20000;-44
2022/06/26 09:47:27;;;;;;;9.88;1.80;;;;;;;24.71;37.68;101095.81;6245373;23;20011;-41
2022/06/26 09:50:01;;;;;;;6.43;1.50;;;;;;;24.65;37.41;101096.59;6245650;23;20004;-42
2022/06/26 09:52:31;;;;;;;3.25;1.20;;;;;;;24.57;38.16;101096.47;6246358;23;20078;-42
2022/06/26 09:55:01;;;;;;;6.47;1.52;;;;;;;24.43;37.67;101072.72;6244921;23;20497;-43
2022/06/26 09:57:31;;;;;;;5.90;1.63;;;;;;;24.31;37.56;101076.91;6247133;23;20435;-43
2022/06/26 10:00:00;;;;;;;6.90;1.40;;;;;;;24.47;37.08;101106.84;6247057;23;20000;-44
2022/06/26 10:08:09;;;;;;;8.68;1.80;;;;;;;24.36;37.29;101111.94;6236111;23;20366;-44
2022/06/26 10:10:37;;;;;;;6.97;1.30;;;;;;;24.33;37.72;101110.13;6246232;23;20027;-42
2022/06/26 10:13:07;;;;;;;6.10;1.80;;;;;;;24.15;37.37;101105.53;6246526;23;20008;-44
2022/06/26 10:15:42;;;;;;;7.32;1.50;;;;;;;24.12;37.96;101124.72;6219438;23;20079;-42
2022/06/26 10:18:38;;;;;;;8.40;2.15;;;;;;;23.99;38.17;101125.41;6247053;23;20066;-42
2022/06/26 10:21:13;;;;;;;9.25;1.77;;;;;;;24.10;38.54;101123.81;6239681;23;20078;-42
2022/06/26 10:23:42;;;;;;;7.88;2.17;;;;;;;24.19;38.47;101122.16;6246691;23;20000;-42
2022/06/26 10:26:16;;;;;;;6.95;1.40;;;;;;;24.21;38.88;101123.06;6247320;23;20028;-45
2022/06/26 10:29:03;;;;;;;13.95;1.55;;;;;;;24.11;38.72;101124.69;6246461;23;20004;-42
2022/06/26 10:31:47;;;;;;;5.70;1.65;;;;;;;24.20;39.16;101126.56;6236624;23;20031;-42
2022/06/26 10:34:22;;;;;;;5.07;1.33;;;;;;;24.40;38.80;101122.47;6246690;23;20075;-42
2022/06/26 10:37:13;;;;;;;3.15;1.20;;;;;;;24.35;38.75;101118.03;6246585;23;20008;-42
2022/06/26 10:39:41;;;;;;;7.45;1.77;;;;;;;24.25;38.87;101123.13;6219460;23;20035;-47
2022/06/26 10:43:12;;;;;;;9.05;1.95;;;;;;;24.22;39.45;101116.97;6246026;23;20012;-41
2022/06/26 10:45:37;;;;;;;10.05;2.38;;;;;;;24.31;39.10;101118.84;6236635;23;20441;-48
2022/06/26 10:48:08;;;;;;;5.20;1.50;;;;;;;24.11;38.76;101109.84;6246046;23;20035;-42
2022/06/26 10:50:38;;;;;;;8.60;2.05;;;;;;;24.27;38.73;101120.56;6246700;23;20424;-41
2022/06/26 10:53:26;;;;;;;8.05;1.48;;;;;;;24.20;38.79;101121.31;6246354;23;20015;-42
2022/06/26 10:55:58;;;;;;;7.10;1.60;;;;;;;24.18;38.73;101121.31;6245809;23;20016;-42
2022/06/26 10:58:32;;;;;;;7.65;1.73;;;;;;;24.27;38.75;101116.19;6245976;23;20009;-41
2022/06/26 11:01:04;;;;;;;7.55;1.55;;;;;;;24.31;38.58;101117.13;6219537;23;20008;-41
2022/06/26 11:03:33;;;;;;;6.45;1.48;;;;;;;24.27;38.63;101123.19;6219837;23;20335;-41
2022/06/26 11:06:04;;;;;;;9.30;1.90;;;;;;;24.47;38.69;101127.81;6246084;23;20087;-42
2022/06/26 11:08:34;;;;;;;8.38;2.00;;;;;;;24.52;37.48;101131.38;6218827;23;20004;-43
2022/06/26 11:11:07;;;;;;;6.53;1.30;;;;;;;24.40;37.63;101132.09;6245990;23;20011;-42
2022/06/26 11:13:45;;;;;;;9.30;2.10;;;;;;;24.24;37.58;101131.00;6245157;23;20000;-41
2022/06/26 11:16:13;;;;;;;5.22;1.63;;;;;;;24.16;37.50;101122.16;6244634;23;20010;-42
2022/06/26 11:18:42;;;;;;;7.00;1.67;;;;;;;24.04;37.60;101114.97;6246335;23;20036;-47
2022/06/26 11:21:11;;;;;;;9.02;2.08;;;;;;;23.97;37.69;101106.16;6246136;23;20034;-43
2022/06/26 11:23:40;;;;;;;7.18;1.70;;;;;;;24.21;38.15;101123.97;6245841;23;20004;-47
2022/06/26 11:26:11;;;;;;;5.53;1.33;;;;;;;24.30;37.61;101130.19;6245813;23;20000;-41
2022/06/26 11:28:42;;;;;;;6.28;1.55;;;;;;;24.41;38.46;101119.00;6245642;23;20424;-41
2022/06/26 11:31:14;;;;;;;9.95;2.17;;;;;;;24.36;37.90;101125.91;6245836;23;20008;-44
2022/06/26 11:33:42;;;;;;;6.03;1.23;;;;;;;24.34;38.29;101132.88;6244099;23;20011;-43
2022/06/26 11:36:13;;;;;;;10.07;1.90;;;;;;;24.35;38.34;101132.00;6219011;23;20403;-42
2022/06/26 11:38:50;;;;;;;6.95;1.85;;;;;;;24.39;38.74;101135.59;6245704;23;20382;-42
2022/06/26 11:41:19;;;;;;;7.30;1.67;;;;;;;24.48;38.45;101132.22;6245401;23;20083;-41
2022/06/26 11:43:50;;;;;;;7.68;1.52;;;;;;;24.43;38.06;101124.25;6246396;23;20420;-45